createdAt,value
2024-05-09T00:02:45.940Z,101374.53
2024-05-09T00:06:50.282Z,101374.53
2024-05-09T00:10:52.753Z,101365.94
2024-05-09T00:14:54.639Z,101381.41
2024-05-09T00:18:56.503Z,101373.47
2024-05-09T00:23:01.309Z,101373.59
2024-05-09T00:27:03.434Z,101368.78
2024-05-09T00:31:05.111Z,101365.44
2024-05-09T00:35:07.426Z,101364.84
2024-05-09T00:39:11.875Z,101359.38
2024-05-09T00:43:14.818Z,101363.66
2024-05-09T00:47:17.445Z,101368.97
2024-05-09T00:51:20.071Z,101364.91
2024-05-09T00:55:24.701Z,101365.75
2024-05-09T00:59:27.467Z,101374.88
2024-05-09T01:03:29.677Z,101371.09
2024-05-09T01:07:31.626Z,101369.66
2024-05-09T01:11:36.732Z,101367.50
2024-05-09T01:15:38.551Z,101360.63
2024-05-09T01:19:42.031Z,101362.91
2024-05-09T01:23:46.549Z,101371.66
2024-05-09T01:27:48.306Z,101358.06
2024-05-09T01:31:50.170Z,101357.38
2024-05-09T01:35:52.209Z,101351.06
2024-05-09T01:39:56.565Z,101345.59
2024-05-09T01:43:58.425Z,101344.28
2024-05-09T01:48:00.585Z,101350.16
2024-05-09T01:52:02.769Z,101349.22
2024-05-09T01:56:08.186Z,101339.63
2024-05-09T02:00:15.539Z,101339.47
2024-05-09T02:04:19.995Z,101345.28
2024-05-09T02:08:22.409Z,101341.97
2024-05-09T02:12:27.019Z,101342.91
2024-05-09T02:16:28.850Z,101342.13
2024-05-09T02:20:35.970Z,101340.25
2024-05-09T02:24:38.733Z,101335.28
2024-05-09T02:28:43.268Z,101336.84
2024-05-09T02:32:45.274Z,101328.22
2024-05-09T02:36:47.095Z,101335.59
2024-05-09T02:40:48.930Z,101340.28
2024-05-09T02:44:53.294Z,101344.66
2024-05-09T02:48:55.163Z,101335.84
2024-05-09T02:52:57.108Z,101336.00
2024-05-09T02:56:58.904Z,101328.56
2024-05-09T03:01:03.371Z,101331.47
2024-05-09T03:05:05.649Z,101328.53
2024-05-09T03:09:08.736Z,101289.84
2024-05-09T03:13:14.555Z,101323.97
2024-05-09T03:17:20.253Z,101325.84
2024-05-09T03:21:22.033Z,101328.09
2024-05-09T03:25:24.100Z,101322.91
2024-05-09T03:29:26.020Z,101323.81
2024-05-09T03:33:30.704Z,101322.66
2024-05-09T03:37:32.577Z,101323.50
2024-05-09T03:41:34.364Z,101322.38
2024-05-09T03:45:36.262Z,101323.66
2024-05-09T03:49:40.839Z,101320.88
2024-05-09T03:53:42.604Z,101321.28
2024-05-09T03:57:44.388Z,101327.22
2024-05-09T04:01:46.352Z,101325.22
2024-05-09T04:05:50.885Z,101329.66
2024-05-09T04:09:52.639Z,101308.38
2024-05-09T04:13:54.439Z,101307.84
2024-05-09T04:17:56.494Z,101325.50
2024-05-09T04:22:01.174Z,101327.38
2024-05-09T04:26:02.955Z,101325.50
2024-05-09T04:30:09.942Z,101334.75
2024-05-09T04:34:14.628Z,101310.34
2024-05-09T04:38:19.930Z,101330.94
2024-05-09T04:42:21.725Z,101306.13
2024-05-09T04:46:23.513Z,101321.88
2024-05-09T04:50:35.128Z,101327.34
2024-05-09T04:54:42.509Z,101333.34
2024-05-09T04:58:44.810Z,101337.50
2024-05-09T05:02:46.788Z,101329.69
2024-05-09T05:06:48.622Z,101333.38
2024-05-09T05:10:53.185Z,101328.47
2024-05-09T05:14:55.181Z,101340.56
2024-05-09T05:18:57.388Z,101338.47
2024-05-09T05:22:59.238Z,101309.59
2024-05-09T05:27:03.959Z,101333.84
2024-05-09T05:31:05.654Z,101343.41
2024-05-09T05:35:07.543Z,101336.34
2024-05-09T05:39:09.362Z,101353.78
2024-05-09T05:43:19.017Z,101350.53
2024-05-09T05:47:21.083Z,101365.56
2024-05-09T05:51:22.919Z,101362.25
2024-05-09T05:55:24.655Z,101372.47
2024-05-09T05:59:29.255Z,101359.81
2024-05-09T06:03:31.203Z,101369.34
2024-05-09T06:07:33.415Z,101372.22
2024-05-09T06:11:35.562Z,101367.75
2024-05-09T06:15:40.939Z,101357.75
2024-05-09T06:19:43.110Z,101356.63
2024-05-09T06:23:45.885Z,101274.91
2024-05-09T06:27:47.773Z,101357.91
2024-05-09T06:31:53.500Z,101346.22
2024-05-09T06:35:55.850Z,101354.69
2024-05-09T06:39:57.692Z,101348.06
2024-05-09T06:43:59.632Z,101357.50
2024-05-09T06:48:04.972Z,101360.53
2024-05-09T06:52:06.906Z,101335.53
2024-05-09T06:56:08.799Z,101361.47
2024-05-09T07:00:22.696Z,101366.31
2024-05-09T07:04:35.009Z,101373.09
2024-05-09T07:08:37.968Z,101372.28
2024-05-09T07:12:39.805Z,101370.50
2024-05-09T07:16:41.592Z,101379.16
2024-05-09T07:20:48.208Z,101359.22
2024-05-09T07:24:50.583Z,101353.56
2024-05-09T07:28:52.452Z,101358.38
2024-05-09T07:32:54.500Z,101375.31
2024-05-09T07:36:59.295Z,101372.81
2024-05-09T07:41:01.010Z,101374.22
2024-05-09T07:45:21.302Z,101374.56
2024-05-09T07:53:40.841Z,101370.81
2024-05-09T07:57:47.554Z,101370.25
2024-05-09T08:01:49.676Z,101367.38
2024-05-09T08:05:51.997Z,101373.81
2024-05-09T08:09:56.491Z,101368.88
2024-05-09T08:13:58.478Z,101346.66
2024-05-09T08:18:00.496Z,101334.97
2024-05-09T08:22:02.545Z,101366.81
2024-05-09T08:26:06.955Z,101365.50
2024-05-09T08:30:15.472Z,101359.56
2024-05-09T08:34:24.666Z,101367.59
2024-05-09T08:38:26.603Z,101366.16
2024-05-09T08:42:32.432Z,101356.25
2024-05-09T08:46:36.440Z,101356.97
2024-05-09T08:50:40.757Z,101337.53
2024-05-09T08:54:42.773Z,101357.84
2024-05-09T08:58:49.319Z,101357.53
2024-05-09T09:02:51.992Z,101353.69
2024-05-09T09:06:58.381Z,101352.69
2024-05-09T09:11:01.191Z,101351.22
2024-05-09T09:15:05.991Z,101348.00
2024-05-09T09:19:08.177Z,101345.03
2024-05-09T09:23:10.160Z,101335.44
2024-05-09T09:27:13.907Z,101331.06
2024-05-09T09:31:19.846Z,101326.19
2024-05-09T09:35:21.647Z,101336.56
2024-05-09T09:39:27.835Z,101334.47
2024-05-09T09:43:31.637Z,101334.41
2024-05-09T09:47:37.737Z,101321.00
2024-05-09T09:51:41.590Z,101322.53
2024-05-09T09:55:43.566Z,101324.53
2024-05-09T09:59:49.831Z,101321.31
2024-05-09T10:03:54.529Z,101308.41
2024-05-09T10:07:58.286Z,101309.22
2024-05-09T10:12:09.608Z,101293.03
2024-05-09T10:16:12.250Z,101306.19
2024-05-09T10:20:21.945Z,101307.94
2024-05-09T10:24:27.213Z,101300.75
2024-05-09T10:28:30.985Z,101296.94
2024-05-09T10:32:38.264Z,101294.03
2024-05-09T10:36:44.045Z,101286.72
2024-05-09T10:40:46.202Z,101282.53
2024-05-09T10:44:48.171Z,101284.72
2024-05-09T10:48:50.735Z,101276.31
2024-05-09T10:52:55.445Z,101278.34
2024-05-09T10:56:57.442Z,101276.53
2024-05-09T11:01:00.661Z,101271.19
2024-05-09T11:05:04.782Z,101261.72
2024-05-09T11:09:10.112Z,101257.66
2024-05-09T11:13:12.353Z,101259.06
2024-05-09T11:17:14.216Z,101253.75
2024-05-09T11:21:16.040Z,101252.59
2024-05-09T11:25:20.539Z,101250.16
2024-05-09T11:29:22.279Z,101248.50
2024-05-09T11:33:24.368Z,101243.81
2024-05-09T11:37:26.412Z,101234.50
2024-05-09T11:41:32.201Z,101224.72
2024-05-09T11:45:34.207Z,101223.31
2024-05-09T11:49:36.181Z,101219.34
2024-05-09T11:53:38.205Z,101208.63
2024-05-09T11:57:42.639Z,101211.69
2024-05-09T12:01:44.517Z,101205.16
2024-05-09T12:05:46.634Z,101201.88
2024-05-09T12:09:48.376Z,101202.13
2024-05-09T12:13:52.908Z,101194.88
2024-05-09T12:17:55.974Z,101188.84
2024-05-09T12:21:59.162Z,101187.47
2024-05-09T12:26:01.057Z,101183.13
2024-05-09T12:30:09.048Z,101182.06
2024-05-09T12:34:13.793Z,101179.94
2024-05-09T12:38:15.799Z,101176.00
2024-05-09T12:42:26.562Z,101161.63
2024-05-09T12:46:32.581Z,101156.72
2024-05-09T12:50:34.947Z,101163.47
2024-05-09T12:54:37.092Z,101160.09
2024-05-09T12:58:38.935Z,101150.03
2024-05-09T13:02:43.514Z,101143.53
2024-05-09T13:06:45.464Z,101149.00
2024-05-09T13:10:47.896Z,101138.25
2024-05-09T13:14:49.875Z,101140.09
2024-05-09T13:18:54.379Z,101135.03
2024-05-09T13:22:56.238Z,101133.88
2024-05-09T13:26:58.080Z,101129.09
2024-05-09T13:30:59.874Z,101121.47
2024-05-09T13:35:04.700Z,101118.63
2024-05-09T13:39:06.595Z,101116.47
2024-05-09T13:43:08.326Z,101126.66
2024-05-09T13:47:10.388Z,101122.19
2024-05-09T13:51:14.755Z,101113.69
2024-05-09T13:55:16.678Z,101112.41
2024-05-09T13:59:18.492Z,101101.25
2024-05-09T14:03:21.059Z,101095.81
2024-05-09T14:07:25.931Z,101096.19
2024-05-09T14:11:27.692Z,101085.28
2024-05-09T14:15:29.523Z,101075.69
2024-05-09T14:19:31.360Z,101073.28
2024-05-09T14:23:35.758Z,101076.69
2024-05-09T14:27:37.685Z,101060.78
2024-05-09T14:31:39.854Z,101070.31
2024-05-09T14:35:41.801Z,101058.56
2024-05-09T14:39:46.237Z,101060.41
2024-05-09T14:43:47.998Z,101054.69
2024-05-09T14:47:50.001Z,101048.31
2024-05-09T14:51:51.796Z,101049.31
2024-05-09T14:55:56.316Z,101048.25
2024-05-09T14:59:58.115Z,101041.66
2024-05-09T15:03:59.905Z,101039.94
2024-05-09T15:08:01.728Z,101034.16
2024-05-09T15:12:06.486Z,101027.44
2024-05-09T15:16:08.368Z,101016.56
2024-05-09T15:20:16.771Z,101024.16
2024-05-09T15:24:19.419Z,101021.78
2024-05-09T15:28:24.011Z,101015.81
2024-05-09T15:32:26.267Z,101007.53
2024-05-09T15:36:28.097Z,101008.81
2024-05-09T15:40:37.245Z,100996.66
2024-05-09T15:44:44.252Z,100992.44
2024-05-09T15:48:46.195Z,100996.75
2024-05-09T15:52:48.087Z,100989.69
2024-05-09T15:56:49.856Z,100990.00
2024-05-09T16:00:54.602Z,100985.28
2024-05-09T16:04:56.565Z,100987.81
2024-05-09T16:08:58.420Z,100982.56
2024-05-09T16:13:00.234Z,100986.31
2024-05-09T16:17:05.310Z,100982.19
2024-05-09T16:21:08.002Z,100982.88
2024-05-09T16:25:09.760Z,100987.75
2024-05-09T16:29:11.657Z,100984.72
2024-05-09T16:33:16.193Z,100990.50
2024-05-09T16:37:18.140Z,100979.25
2024-05-09T16:41:20.023Z,100968.81
2024-05-09T16:45:21.868Z,100974.63
2024-05-09T16:49:26.795Z,100975.09
2024-05-09T16:53:28.606Z,100976.97
2024-05-09T16:57:30.466Z,100967.50
2024-05-09T17:01:32.334Z,100964.44
2024-05-09T17:05:37.242Z,100964.94
2024-05-09T17:09:39.375Z,100967.59
2024-05-09T17:13:41.106Z,100962.50
2024-05-09T17:17:42.953Z,100967.25
2024-05-09T17:21:47.457Z,100973.47
2024-05-09T17:25:49.340Z,100965.81
2024-05-09T17:29:51.128Z,100961.91
2024-05-09T17:33:53.293Z,100959.16
2024-05-09T17:37:58.484Z,100960.38
2024-05-09T17:42:00.247Z,100961.19
2024-05-09T17:46:02.239Z,100957.28
2024-05-09T17:50:04.489Z,100960.72
2024-05-09T17:54:09.268Z,100957.09
2024-05-09T17:58:12.578Z,100945.88
2024-05-09T18:02:14.503Z,100950.53
2024-05-09T18:06:16.302Z,100944.56
2024-05-09T18:10:25.996Z,100950.91
2024-05-09T18:14:34.818Z,100950.66
2024-05-09T18:18:36.834Z,100951.41
2024-05-09T18:22:38.716Z,100954.28
2024-05-09T18:26:43.192Z,100953.75
2024-05-09T18:30:45.125Z,100955.06
2024-05-09T18:34:47.138Z,100954.03
2024-05-09T18:38:49.062Z,100955.72
2024-05-09T18:42:53.521Z,100951.78
2024-05-09T18:46:55.263Z,100961.22
2024-05-09T18:50:57.052Z,100961.94
2024-05-09T18:54:58.875Z,100967.00
2024-05-09T18:59:03.170Z,100966.13
2024-05-09T19:03:06.616Z,100971.16
2024-05-09T19:07:08.780Z,100978.94
2024-05-09T19:11:11.630Z,100977.69
2024-05-09T19:15:16.084Z,100971.84
2024-05-09T19:19:18.068Z,100990.91
2024-05-09T19:23:19.864Z,100985.63
2024-05-09T19:27:22.816Z,100985.00
2024-05-09T19:31:27.510Z,100982.25
2024-05-09T19:35:29.320Z,100985.00
2024-05-09T19:39:31.291Z,100987.19
2024-05-09T19:43:36.035Z,100990.47
2024-05-09T19:47:41.066Z,100998.47
2024-05-09T19:51:42.913Z,101000.16
2024-05-09T19:55:44.923Z,101000.13
2024-05-09T19:59:46.639Z,100995.22
2024-05-09T20:03:51.244Z,100995.66
2024-05-09T20:07:53.080Z,100991.69
2024-05-09T20:11:54.980Z,100994.94
2024-05-09T20:15:56.865Z,101006.06
2024-05-09T20:20:01.918Z,101009.50
2024-05-09T20:24:03.918Z,101002.16
2024-05-09T20:28:06.273Z,101000.13
2024-05-09T20:32:08.467Z,101000.41
2024-05-09T20:36:12.954Z,101003.75
2024-05-09T20:40:21.258Z,101002.47
2024-05-09T20:44:27.362Z,101012.88
2024-05-09T20:48:31.039Z,101004.75
2024-05-09T20:52:36.393Z,101010.28
2024-05-09T20:56:38.100Z,101001.22
2024-05-09T21:00:43.276Z,101007.84
2024-05-09T21:04:47.159Z,101004.63
2024-05-09T21:08:51.620Z,101008.88
2024-05-09T21:12:53.643Z,101006.19
2024-05-09T21:16:55.808Z,101008.28
2024-05-09T21:20:57.707Z,101007.25
2024-05-09T21:25:02.300Z,101010.31
2024-05-09T21:29:05.139Z,101001.72
2024-05-09T21:33:07.766Z,101008.41
2024-05-09T21:37:09.778Z,100993.94
2024-05-09T21:41:14.212Z,101001.81
2024-05-09T21:45:16.103Z,101004.59
2024-05-09T21:49:18.083Z,100992.34
2024-05-09T21:53:20.114Z,100998.56
2024-05-09T21:57:24.651Z,100994.81
2024-05-09T22:01:26.640Z,100998.59
2024-05-09T22:05:28.725Z,100994.97
2024-05-09T22:09:30.562Z,100989.84
2024-05-09T22:13:35.189Z,100992.31
2024-05-09T22:17:39.274Z,100996.16
2024-05-09T22:21:41.188Z,100992.38
2024-05-09T22:25:43.040Z,100993.16
2024-05-09T22:29:47.520Z,100993.03
2024-05-09T22:33:49.479Z,100996.72
2024-05-09T22:37:51.370Z,100993.56
2024-05-09T22:41:53.218Z,100997.44
2024-05-09T22:45:57.691Z,100994.66
2024-05-09T22:49:59.538Z,100999.75
2024-05-09T22:54:03.784Z,101006.53
2024-05-09T22:58:05.585Z,101006.19
2024-05-09T23:02:10.224Z,101006.13
2024-05-09T23:06:12.241Z,101004.13
2024-05-09T23:10:20.999Z,101006.97
2024-05-09T23:14:28.968Z,101000.06
2024-05-09T23:18:33.490Z,100990.44
2024-05-09T23:22:35.316Z,100997.00
2024-05-09T23:26:41.484Z,100998.69
2024-05-09T23:30:43.375Z,100995.53
2024-05-09T23:34:47.923Z,100982.75
2024-05-09T23:38:49.602Z,100982.28
2024-05-09T23:42:51.432Z,100959.44
2024-05-09T23:46:53.351Z,100983.13
2024-05-09T23:50:57.775Z,100978.88
2024-05-09T23:54:59.766Z,100949.84
2024-05-09T23:59:01.575Z,100970.47
